This is the latest recevied weather packets stored in our database for station/object LA3SP-1. If no packets are shown the sender has not sent any weather packets the latest 10 day(s).
| Time | Temp. | Humidity | Pressure | Rain* | Wind** | Luminosity | Snow |
|---|---|---|---|---|---|---|---|
| 1777485125 | 8.33° C | 57% | 1023.7 hPa | 0 mm | - | - | - |
| 1777483922 | 8.33° C | 58% | 1023.7 hPa | 0 mm | - | - | - |
| 1777483321 | 8.33° C | 58% | 1023.7 hPa | 0 mm | - | - | - |
| 1777482719 | 8.33° C | 59% | 1023.7 hPa | 0 mm | - | - | - |
| 1777482118 | 8.33° C | 59% | 1023.7 hPa | 0 mm | - | - | - |
| 1777481517 | 8.33° C | 57% | 1023.7 hPa | 0 mm | - | - | - |
| 1777480915 | 8.33° C | 58% | 1023.8 hPa | 0 mm | - | - | - |
| 1777479713 | 8.33° C | 57% | 1023.8 hPa | 0 mm | - | - | - |
| 1777479111 | 8.33° C | 57% | 1023.9 hPa | 0 mm | - | - | - |
| 1777478510 | 8.89° C | 57% | 1023.9 hPa | 0 mm | - | - | - |
| 1777477908 | 8.89° C | 55% | 1023.9 hPa | 0 mm | - | - | - |
| 1777477307 | 9.44° C | 55% | 1023.8 hPa | 0 mm | - | - | - |
| 1777476705 | 9.44° C | 55% | 1023.8 hPa | 0 mm | - | - | - |
| 1777476104 | 9.44° C | 55% | 1023.9 hPa | 0 mm | - | - | - |
| 1777475502 | 10° C | 54% | 1023.8 hPa | 0 mm | - | - | - |
| 1777474300 | 10° C | 55% | 1024 hPa | 0 mm | - | - | - |
| 1777473698 | 9.44° C | 55% | 1023.9 hPa | 0 mm | - | - | - |
| 1777473097 | 9.44° C | 54% | 1024.2 hPa | 0 mm | - | - | - |
| 1777472496 | 10° C | 54% | 1024 hPa | 0 mm | - | - | - |
| 1777471894 | 10° C | 54% | 1023.9 hPa | 0 mm | - | - | - |
| 1777471293 | 10.56° C | 52% | 1023.7 hPa | 0 mm | - | - | - |
| 1777470090 | 12.78° C | 47% | 1023.8 hPa | 0 mm | - | - | - |
| 1777469489 | 12.78° C | 47% | 1023.9 hPa | 0 mm | - | - | - |
| 1777468887 | 12.78° C | 50% | 1023.9 hPa | 0 mm | - | - | - |
| 1777468286 | 12.22° C | 50% | 1023.8 hPa | 0 mm | - | - | - |
* Rain latest 24 hours (hover to see other rain measurements)
** Current wind speed in m/s (hover to see current wind gust speed)